createdAt,value
2022-12-22T00:00:21.068Z,0.00
2022-12-22T00:01:21.929Z,0.00
2022-12-22T00:02:23.175Z,0.00
2022-12-22T00:03:23.761Z,0.00
2022-12-22T00:04:24.184Z,0.00
2022-12-22T00:05:25.029Z,0.00
2022-12-22T00:06:25.881Z,0.00
2022-12-22T00:07:26.756Z,0.00
2022-12-22T00:08:27.620Z,0.00
2022-12-22T00:09:28.409Z,0.00
2022-12-22T00:10:29.247Z,0.00
2022-12-22T00:11:30.163Z,0.00
2022-12-22T00:12:30.975Z,0.00
2022-12-22T00:13:31.825Z,0.00
2022-12-22T00:14:32.684Z,0.00
2022-12-22T00:15:33.537Z,0.00
2022-12-22T00:16:34.432Z,0.00
2022-12-22T00:17:35.265Z,0.00
2022-12-22T00:18:36.147Z,0.00
2022-12-22T00:19:36.976Z,0.00
2022-12-22T00:20:37.831Z,0.00
2022-12-22T00:21:38.681Z,0.00
2022-12-22T00:22:40.003Z,0.00
2022-12-22T00:23:40.379Z,0.00
2022-12-22T00:24:41.177Z,0.00
2022-12-22T00:25:42.026Z,0.00
2022-12-22T00:26:42.882Z,0.00
2022-12-22T00:27:45.651Z,0.00
2022-12-22T00:28:44.333Z,0.00
2022-12-22T00:29:45.177Z,0.00
2022-12-22T00:30:46.146Z,0.00
2022-12-22T00:31:46.981Z,0.00
2022-12-22T00:32:47.996Z,0.00
2022-12-22T00:33:48.388Z,0.00
2022-12-22T00:34:49.217Z,0.00
2022-12-22T00:35:50.082Z,0.00
2022-12-22T00:36:50.949Z,0.00
2022-12-22T00:37:51.997Z,0.00
2022-12-22T00:38:52.373Z,0.00
2022-12-22T00:39:53.173Z,0.00
2022-12-22T00:40:54.042Z,0.00
2022-12-22T00:41:54.896Z,0.00
2022-12-22T00:42:56.318Z,0.00
2022-12-22T00:43:56.674Z,0.00
2022-12-22T00:44:57.531Z,0.00
2022-12-22T00:45:58.408Z,0.00
2022-12-22T00:46:59.252Z,0.00
2022-12-22T00:48:00.137Z,0.00
2022-12-22T00:49:00.992Z,0.00
2022-12-22T00:50:01.870Z,0.00
2022-12-22T00:51:02.722Z,0.00
2022-12-22T00:52:03.571Z,0.00
2022-12-22T00:53:04.442Z,0.00
2022-12-22T00:54:05.307Z,0.00
2022-12-22T00:55:06.079Z,0.00
2022-12-22T00:56:06.935Z,0.00
2022-12-22T00:57:07.782Z,0.00
2022-12-22T00:58:08.991Z,0.00
2022-12-22T00:59:09.348Z,0.00
2022-12-22T01:00:10.198Z,0.00
2022-12-22T01:01:11.074Z,0.00
2022-12-22T01:02:12.071Z,0.00
2022-12-22T01:03:13.195Z,0.00
2022-12-22T01:04:13.102Z,0.00
2022-12-22T01:05:13.915Z,0.00
2022-12-22T01:06:14.769Z,0.00
2022-12-22T01:07:15.662Z,0.00
2022-12-22T01:08:17.018Z,0.00
2022-12-22T01:09:17.386Z,0.00
2022-12-22T01:10:18.175Z,0.00
2022-12-22T01:11:19.066Z,0.00
2022-12-22T01:12:19.915Z,0.00
2022-12-22T01:13:21.007Z,0.00
2022-12-22T01:14:21.350Z,0.00
2022-12-22T01:15:22.205Z,0.00
2022-12-22T01:16:23.154Z,0.00
2022-12-22T01:17:23.957Z,0.00
2022-12-22T01:18:25.018Z,0.00
2022-12-22T01:19:25.383Z,0.00
2022-12-22T01:20:26.209Z,0.00
2022-12-22T01:21:27.110Z,0.00
2022-12-22T01:22:27.974Z,0.00
2022-12-22T01:23:29.016Z,0.00
2022-12-22T01:24:29.404Z,0.00
2022-12-22T01:25:30.186Z,0.00
2022-12-22T01:26:31.041Z,0.00
2022-12-22T01:27:31.914Z,0.00
2022-12-22T01:28:32.785Z,0.00
2022-12-22T01:29:33.628Z,0.00
2022-12-22T01:30:34.541Z,0.00
2022-12-22T01:31:35.360Z,0.00
2022-12-22T01:32:36.209Z,0.00
2022-12-22T01:33:37.073Z,0.00
2022-12-22T01:34:37.953Z,0.00
2022-12-22T01:35:38.782Z,0.00
2022-12-22T01:36:39.656Z,0.00
2022-12-22T01:37:40.506Z,0.00
2022-12-22T01:38:41.509Z,0.00
2022-12-22T01:39:41.870Z,0.00
2022-12-22T01:40:42.656Z,0.00
2022-12-22T01:41:43.528Z,0.00
2022-12-22T01:42:44.371Z,0.00
2022-12-22T01:43:45.532Z,0.00
2022-12-22T01:44:45.889Z,0.00
2022-12-22T01:45:46.769Z,0.00
2022-12-22T01:46:47.753Z,0.00
2022-12-22T01:47:48.121Z,0.00
2022-12-22T01:48:48.988Z,0.00
2022-12-22T01:49:49.879Z,0.00
2022-12-22T01:50:50.712Z,0.00
2022-12-22T01:51:51.574Z,0.00
2022-12-22T01:52:52.451Z,0.00
2022-12-22T01:53:53.323Z,0.00
2022-12-22T01:54:54.225Z,0.00
2022-12-22T01:55:55.009Z,0.00
2022-12-22T01:56:55.865Z,0.00
2022-12-22T01:57:56.729Z,0.00
2022-12-22T01:58:57.582Z,0.00
2022-12-22T01:59:58.458Z,0.00
2022-12-22T02:00:59.332Z,0.00
2022-12-22T02:02:00.446Z,0.00
2022-12-22T02:03:01.001Z,0.00
2022-12-22T02:04:01.407Z,0.00
2022-12-22T02:05:02.288Z,0.00
2022-12-22T02:06:03.127Z,0.00
2022-12-22T02:07:04.023Z,0.00
2022-12-22T02:08:04.878Z,0.00
2022-12-22T02:09:05.992Z,0.00
2022-12-22T02:10:06.354Z,0.00
2022-12-22T02:11:07.146Z,0.00
2022-12-22T02:12:08.002Z,0.00
2022-12-22T02:13:08.858Z,0.00
2022-12-22T02:14:09.990Z,0.00
2022-12-22T02:15:10.341Z,0.00
2022-12-22T02:16:11.262Z,0.00
2022-12-22T02:17:12.064Z,0.00
2022-12-22T02:18:12.929Z,0.00
2022-12-22T02:19:13.985Z,0.00
2022-12-22T02:20:14.397Z,0.00
2022-12-22T02:21:15.211Z,0.00
2022-12-22T02:22:16.077Z,0.00
2022-12-22T02:23:16.925Z,0.00
2022-12-22T02:24:17.990Z,0.00
2022-12-22T02:25:18.375Z,0.00
2022-12-22T02:26:19.229Z,0.00
2022-12-22T02:27:20.077Z,0.00
2022-12-22T02:28:20.936Z,0.00
2022-12-22T02:29:21.987Z,0.00
2022-12-22T02:30:22.343Z,0.00
2022-12-22T02:31:23.263Z,0.00
2022-12-22T02:32:24.106Z,0.00
2022-12-22T02:33:24.963Z,0.00
2022-12-22T02:34:25.986Z,0.00
2022-12-22T02:35:26.363Z,0.00
2022-12-22T02:36:27.222Z,0.00
2022-12-22T02:37:28.081Z,0.00
2022-12-22T02:38:28.931Z,0.00
2022-12-22T02:39:29.794Z,0.00
2022-12-22T02:40:34.409Z,0.00
2022-12-22T02:41:32.403Z,0.00
2022-12-22T02:42:32.260Z,0.00
2022-12-22T02:43:33.120Z,0.00
2022-12-22T02:44:34.531Z,0.00
2022-12-22T02:45:34.889Z,0.00
2022-12-22T02:46:35.853Z,0.00
2022-12-22T02:47:36.639Z,0.00
2022-12-22T02:48:37.494Z,0.00
2022-12-22T02:49:38.504Z,0.00
2022-12-22T02:50:39.358Z,0.00
2022-12-22T02:51:40.189Z,0.00
2022-12-22T02:52:41.041Z,0.00
2022-12-22T02:53:41.894Z,0.00
2022-12-22T02:54:42.768Z,0.00
2022-12-22T02:55:43.633Z,0.00
2022-12-22T02:56:44.582Z,0.00
2022-12-22T02:57:45.443Z,0.00
2022-12-22T02:58:46.313Z,0.00
2022-12-22T02:59:47.485Z,0.00
2022-12-22T03:00:47.861Z,0.00
2022-12-22T03:01:48.485Z,0.00
2022-12-22T03:02:49.013Z,0.00
2022-12-22T03:03:49.477Z,0.00
2022-12-22T03:04:50.476Z,0.00
2022-12-22T03:05:50.860Z,0.00
2022-12-22T03:06:51.694Z,0.00
2022-12-22T03:07:52.572Z,0.00
2022-12-22T03:08:53.443Z,0.00
2022-12-22T03:09:54.484Z,0.00
2022-12-22T03:10:54.876Z,0.00
2022-12-22T03:11:55.664Z,0.00
2022-12-22T03:12:56.516Z,0.00
2022-12-22T03:13:57.366Z,0.00
2022-12-22T03:14:58.243Z,0.00
2022-12-22T03:15:59.146Z,0.00
2022-12-22T03:16:59.957Z,0.00
2022-12-22T03:18:00.836Z,0.00
2022-12-22T03:19:01.668Z,0.00
2022-12-22T03:20:02.530Z,0.00
2022-12-22T03:21:03.426Z,0.00
2022-12-22T03:22:04.258Z,0.00
2022-12-22T03:23:05.122Z,0.00
2022-12-22T03:24:05.981Z,0.00
2022-12-22T03:25:06.975Z,0.00
2022-12-22T03:26:07.348Z,0.00
2022-12-22T03:27:08.138Z,0.00
2022-12-22T03:28:09.051Z,0.00
2022-12-22T03:29:09.902Z,0.00
2022-12-22T03:30:10.998Z,0.00
2022-12-22T03:31:11.332Z,0.00
2022-12-22T03:32:12.188Z,0.00
2022-12-22T03:33:13.037Z,0.00
2022-12-22T03:34:13.885Z,0.00
2022-12-22T03:35:14.976Z,0.00
2022-12-22T03:36:15.353Z,0.00
2022-12-22T03:37:16.192Z,0.00
2022-12-22T03:38:17.044Z,0.00
2022-12-22T03:39:17.891Z,0.00
2022-12-22T03:40:18.756Z,0.00
2022-12-22T03:41:19.636Z,0.00
2022-12-22T03:42:20.464Z,0.00
2022-12-22T03:43:21.323Z,0.00
2022-12-22T03:44:22.182Z,0.00
2022-12-22T03:45:23.496Z,0.00
2022-12-22T03:46:23.895Z,0.00
2022-12-22T03:47:24.704Z,0.00
2022-12-22T03:48:25.564Z,0.00
2022-12-22T03:49:26.465Z,0.00
2022-12-22T03:50:27.475Z,0.00
2022-12-22T03:51:27.856Z,0.00
2022-12-22T03:52:28.702Z,0.00
2022-12-22T03:53:29.562Z,0.00
2022-12-22T03:54:30.412Z,0.00
2022-12-22T03:55:31.272Z,0.00
2022-12-22T03:56:32.153Z,0.00
2022-12-22T03:57:32.956Z,0.00
2022-12-22T03:58:33.797Z,0.00
2022-12-22T03:59:34.648Z,0.00
2022-12-22T04:00:35.549Z,0.00
2022-12-22T04:01:36.586Z,0.00
2022-12-22T04:02:37.202Z,0.00
2022-12-22T04:03:38.045Z,0.00
2022-12-22T04:04:38.899Z,0.00
2022-12-22T04:05:39.994Z,0.00
2022-12-22T04:06:40.387Z,0.00
2022-12-22T04:07:41.202Z,0.00
2022-12-22T04:08:42.056Z,0.00
2022-12-22T04:09:42.944Z,0.00
2022-12-22T04:10:43.982Z,0.00
2022-12-22T04:11:44.360Z,0.00
2022-12-22T04:12:45.152Z,0.00
2022-12-22T04:13:45.997Z,0.00
2022-12-22T04:14:46.849Z,0.00
2022-12-22T04:15:47.729Z,0.00
2022-12-22T04:16:48.677Z,0.00
2022-12-22T04:17:49.489Z,0.00
2022-12-22T04:18:50.359Z,0.00
2022-12-22T04:19:51.214Z,0.00
2022-12-22T04:20:52.476Z,0.00
2022-12-22T04:21:52.858Z,0.00
2022-12-22T04:22:53.696Z,0.00
2022-12-22T04:23:54.550Z,0.00
2022-12-22T04:24:55.409Z,0.00
2022-12-22T04:25:56.288Z,0.00
2022-12-22T04:26:57.169Z,0.00
2022-12-22T04:27:57.949Z,0.00
2022-12-22T04:28:58.848Z,0.00
2022-12-22T04:29:59.678Z,0.00
2022-12-22T04:31:00.537Z,0.00
2022-12-22T04:32:01.477Z,0.00
2022-12-22T04:33:02.345Z,0.00
2022-12-22T04:34:03.199Z,0.00
2022-12-22T04:35:04.093Z,0.00
2022-12-22T04:36:04.954Z,0.00
2022-12-22T04:37:16.514Z,0.00
2022-12-22T04:38:07.587Z,0.00
2022-12-22T04:39:07.443Z,0.00
2022-12-22T04:40:08.287Z,0.00
2022-12-22T04:41:09.159Z,0.00
2022-12-22T04:42:10.089Z,0.00
2022-12-22T04:43:10.868Z,0.00
2022-12-22T04:44:11.731Z,0.00
2022-12-22T04:45:12.577Z,0.00
2022-12-22T04:46:14.654Z,0.00
2022-12-22T04:47:13.990Z,0.00
2022-12-22T04:48:14.836Z,0.00
2022-12-22T04:49:15.698Z,0.00
2022-12-22T04:50:16.566Z,0.00
2022-12-22T04:51:17.424Z,0.00
2022-12-22T04:52:18.317Z,0.00
2022-12-22T04:53:19.135Z,0.00
2022-12-22T04:54:20.000Z,0.00
2022-12-22T04:55:20.858Z,0.00
2022-12-22T04:56:21.741Z,0.00
2022-12-22T04:57:22.719Z,0.00
2022-12-22T04:58:23.497Z,0.00
2022-12-22T04:59:24.350Z,0.00
2022-12-22T05:00:25.209Z,0.00
2022-12-22T05:01:26.203Z,0.00
2022-12-22T05:02:26.667Z,0.00
2022-12-22T05:03:27.609Z,0.00
2022-12-22T05:04:28.419Z,0.00
2022-12-22T05:05:29.273Z,0.00
2022-12-22T05:06:30.483Z,0.00
2022-12-22T05:07:30.857Z,0.00
2022-12-22T05:08:31.700Z,0.00
2022-12-22T05:09:32.564Z,0.00
2022-12-22T05:10:33.428Z,0.00
2022-12-22T05:11:34.317Z,0.00
2022-12-22T05:12:35.197Z,0.00
2022-12-22T05:13:36.003Z,0.00
2022-12-22T05:14:36.860Z,0.00
2022-12-22T05:15:37.761Z,0.00
2022-12-22T05:16:38.729Z,0.00
2022-12-22T05:17:39.553Z,0.00
2022-12-22T05:18:40.404Z,0.00
2022-12-22T05:19:41.296Z,0.00
2022-12-22T05:20:42.155Z,0.00
2022-12-22T05:21:43.480Z,0.00
2022-12-22T05:22:43.840Z,0.00
2022-12-22T05:23:44.675Z,0.00
2022-12-22T05:24:45.526Z,0.00
2022-12-22T05:25:46.380Z,0.00
2022-12-22T05:26:47.466Z,0.00
2022-12-22T05:27:47.859Z,0.00
2022-12-22T05:28:48.640Z,0.00
2022-12-22T05:29:49.510Z,0.00
2022-12-22T05:30:50.407Z,0.00
2022-12-22T05:31:51.475Z,0.00
2022-12-22T05:32:51.832Z,0.00
2022-12-22T05:33:52.694Z,0.00
2022-12-22T05:34:53.540Z,0.00
2022-12-22T05:35:54.414Z,0.00
2022-12-22T05:36:55.465Z,0.00
2022-12-22T05:37:55.862Z,0.00
2022-12-22T05:38:56.678Z,0.00
2022-12-22T05:39:57.544Z,0.00
2022-12-22T05:41:04.038Z,0.00
2022-12-22T05:42:00.151Z,0.00
2022-12-22T05:43:00.034Z,0.00
2022-12-22T05:44:00.827Z,0.00
2022-12-22T05:45:01.687Z,0.00
2022-12-22T05:46:02.609Z,0.00
2022-12-22T05:47:03.978Z,0.00
2022-12-22T05:48:04.344Z,0.00
2022-12-22T05:49:05.196Z,0.00
2022-12-22T05:50:06.048Z,0.00
2022-12-22T05:51:06.919Z,0.00
2022-12-22T05:52:07.962Z,0.00
2022-12-22T05:53:08.341Z,0.00
2022-12-22T05:54:09.173Z,0.00
2022-12-22T05:55:10.026Z,0.00
2022-12-22T05:56:10.876Z,0.00
2022-12-22T05:57:11.970Z,0.00
2022-12-22T05:58:12.333Z,0.00
2022-12-22T05:59:13.116Z,0.00
2022-12-22T06:00:13.967Z,0.00
2022-12-22T06:01:14.828Z,0.00
2022-12-22T06:02:16.169Z,0.00
2022-12-22T06:03:16.697Z,0.00
2022-12-22T06:04:17.732Z,0.00
2022-12-22T06:05:18.089Z,0.00
2022-12-22T06:06:18.944Z,0.00
2022-12-22T06:07:19.840Z,0.00
2022-12-22T06:08:20.699Z,0.00
2022-12-22T06:09:21.535Z,0.00
2022-12-22T06:10:22.382Z,0.00
2022-12-22T06:11:23.240Z,0.00
2022-12-22T06:12:24.468Z,0.00
2022-12-22T06:13:24.839Z,0.00
2022-12-22T06:14:25.619Z,0.00
2022-12-22T06:15:26.475Z,0.00
2022-12-22T06:16:27.116Z,0.00
2022-12-22T06:17:27.932Z,0.00
2022-12-22T06:18:28.798Z,0.00
2022-12-22T06:19:29.667Z,0.00
2022-12-22T06:20:30.529Z,0.00
2022-12-22T06:21:31.378Z,0.00
2022-12-22T06:22:32.239Z,0.00
2022-12-22T06:23:33.118Z,0.00
2022-12-22T06:24:33.945Z,0.00
2022-12-22T06:25:34.802Z,0.00
2022-12-22T06:26:35.657Z,0.00
2022-12-22T06:27:36.523Z,0.00
2022-12-22T06:28:37.403Z,0.00
2022-12-22T06:29:38.179Z,0.00
2022-12-22T06:30:39.041Z,0.00
2022-12-22T06:31:39.976Z,0.00
2022-12-22T06:32:40.846Z,0.00
2022-12-22T06:33:41.693Z,0.00
2022-12-22T06:34:42.546Z,0.00
2022-12-22T06:35:43.413Z,0.00
2022-12-22T06:36:44.296Z,0.00
2022-12-22T06:37:45.464Z,0.00
2022-12-22T06:38:45.837Z,0.00
2022-12-22T06:39:46.669Z,0.00
2022-12-22T06:40:47.524Z,0.00
2022-12-22T06:41:48.393Z,0.00
2022-12-22T06:42:49.472Z,0.00
2022-12-22T06:43:49.847Z,0.00
2022-12-22T06:44:50.621Z,0.00
2022-12-22T06:45:51.477Z,0.00
2022-12-22T06:46:52.361Z,0.00
2022-12-22T06:47:53.473Z,0.00
2022-12-22T06:48:53.862Z,0.00
2022-12-22T06:49:54.720Z,0.00
2022-12-22T06:50:55.577Z,0.00
2022-12-22T06:51:56.439Z,0.00
2022-12-22T06:52:57.457Z,0.00
2022-12-22T06:53:57.838Z,0.00
2022-12-22T06:54:58.671Z,0.00
2022-12-22T06:55:59.532Z,0.00
2022-12-22T06:57:00.383Z,0.00
2022-12-22T06:58:01.460Z,0.00
2022-12-22T06:59:01.842Z,0.00
2022-12-22T07:00:02.678Z,0.00
2022-12-22T07:01:03.487Z,0.00
2022-12-22T07:02:04.544Z,0.00
2022-12-22T07:03:05.311Z,0.00
2022-12-22T07:04:05.790Z,0.00
2022-12-22T07:05:06.613Z,0.00
2022-12-22T07:06:07.461Z,0.00
2022-12-22T07:07:08.337Z,0.00
2022-12-22T07:08:09.596Z,0.00
2022-12-22T07:09:09.921Z,0.00
2022-12-22T07:10:10.731Z,0.00
2022-12-22T07:11:11.595Z,0.00
2022-12-22T07:12:12.446Z,0.00
2022-12-22T07:13:13.307Z,0.00
2022-12-22T07:14:14.178Z,0.00
2022-12-22T07:15:14.961Z,0.00
2022-12-22T07:16:15.847Z,0.00
2022-12-22T07:17:16.665Z,0.00
2022-12-22T07:18:17.964Z,0.00
2022-12-22T07:19:18.311Z,0.00
2022-12-22T07:20:19.171Z,0.00
2022-12-22T07:21:20.035Z,0.00
2022-12-22T07:22:25.755Z,0.00
2022-12-22T07:23:22.972Z,0.00
2022-12-22T07:24:22.334Z,0.00
2022-12-22T07:25:23.170Z,0.00
2022-12-22T07:26:24.028Z,0.00
2022-12-22T07:27:24.899Z,0.00
2022-12-22T07:28:25.956Z,0.00
2022-12-22T07:29:26.340Z,0.00
2022-12-22T07:30:27.134Z,0.00
2022-12-22T07:31:28.075Z,0.00
2022-12-22T07:32:28.869Z,0.00
2022-12-22T07:33:29.983Z,0.00
2022-12-22T07:34:30.336Z,0.00
2022-12-22T07:35:31.195Z,0.00
2022-12-22T07:36:32.048Z,0.00
2022-12-22T07:37:32.911Z,0.00
2022-12-22T07:38:33.944Z,0.00
2022-12-22T07:39:34.348Z,0.00
2022-12-22T07:40:41.149Z,0.00
2022-12-22T07:41:36.946Z,0.00
2022-12-22T07:42:36.809Z,0.00
2022-12-22T07:43:37.673Z,0.00
2022-12-22T07:44:38.561Z,0.00
2022-12-22T07:45:39.434Z,0.00
2022-12-22T07:46:40.528Z,0.00
2022-12-22T07:47:40.854Z,0.00
2022-12-22T07:48:41.706Z,0.00
2022-12-22T07:49:42.562Z,0.00
2022-12-22T07:50:43.442Z,0.00
2022-12-22T07:51:44.467Z,0.00
2022-12-22T07:52:44.819Z,0.00
2022-12-22T07:53:45.677Z,0.00
2022-12-22T07:54:46.559Z,0.00
2022-12-22T07:55:47.386Z,0.00
2022-12-22T07:56:48.256Z,0.00
2022-12-22T07:57:49.106Z,0.00
2022-12-22T07:58:49.954Z,0.00
2022-12-22T07:59:50.837Z,5.62
2022-12-22T08:00:51.633Z,5.62
2022-12-22T08:01:53.100Z,5.62
2022-12-22T08:02:53.649Z,5.62
2022-12-22T08:03:54.091Z,5.62
2022-12-22T08:04:55.110Z,5.62
2022-12-22T08:05:55.928Z,5.62
2022-12-22T08:06:56.950Z,5.62
2022-12-22T08:07:57.305Z,5.62
2022-12-22T08:08:58.153Z,5.62
2022-12-22T08:09:59.035Z,5.62
2022-12-22T08:10:59.875Z,5.62
2022-12-22T08:12:00.956Z,5.62
2022-12-22T08:13:01.390Z,5.62
2022-12-22T08:14:02.544Z,5.62
2022-12-22T08:15:02.879Z,5.62
2022-12-22T08:16:03.763Z,5.62
2022-12-22T08:17:04.951Z,5.62
2022-12-22T08:18:05.305Z,5.62
2022-12-22T08:19:06.180Z,11.25
2022-12-22T08:20:07.061Z,11.25
2022-12-22T08:21:07.933Z,11.25
2022-12-22T08:22:08.949Z,11.25
2022-12-22T08:23:09.312Z,11.25
2022-12-22T08:24:10.167Z,11.25
2022-12-22T08:25:11.063Z,11.25
2022-12-22T08:26:11.870Z,16.88
2022-12-22T08:27:12.737Z,16.88
2022-12-22T08:28:13.586Z,16.88
2022-12-22T08:29:14.435Z,16.88
2022-12-22T08:30:15.313Z,16.88
2022-12-22T08:31:16.126Z,16.88
2022-12-22T08:32:17.451Z,16.88
2022-12-22T08:33:17.800Z,16.88
2022-12-22T08:34:18.673Z,11.25
2022-12-22T08:35:19.514Z,11.25
2022-12-22T08:36:20.379Z,11.25
2022-12-22T08:37:21.447Z,11.25
2022-12-22T08:38:21.807Z,11.25
2022-12-22T08:39:22.649Z,11.25
2022-12-22T08:40:23.538Z,11.25
2022-12-22T08:41:24.359Z,11.25
2022-12-22T08:42:25.445Z,11.25
2022-12-22T08:43:25.799Z,11.25
2022-12-22T08:44:26.657Z,16.88
2022-12-22T08:45:27.529Z,22.50
2022-12-22T08:46:28.334Z,22.50
2022-12-22T08:47:29.293Z,16.88
2022-12-22T08:48:30.133Z,16.88
2022-12-22T08:49:30.975Z,16.88
2022-12-22T08:50:31.844Z,16.88
2022-12-22T08:51:32.693Z,16.88
2022-12-22T08:52:33.567Z,16.88
2022-12-22T08:54:05.101Z,16.88
2022-12-22T08:54:36.172Z,16.88
2022-12-22T08:55:36.040Z,16.88
2022-12-22T08:56:36.872Z,11.25
2022-12-22T08:57:37.993Z,5.62
2022-12-22T08:58:38.310Z,5.62
2022-12-22T08:59:39.177Z,11.25
2022-12-22T09:00:40.202Z,16.88
2022-12-22T09:01:41.240Z,22.50
2022-12-22T09:02:41.813Z,33.75
2022-12-22T09:03:42.242Z,39.38
2022-12-22T09:04:43.095Z,33.75
2022-12-22T09:05:43.946Z,39.38
2022-12-22T09:06:44.798Z,45.00
2022-12-22T09:07:45.949Z,39.38
2022-12-22T09:08:46.324Z,39.38
2022-12-22T09:09:47.179Z,39.38
2022-12-22T09:10:48.066Z,39.38
2022-12-22T09:11:48.886Z,45.00
2022-12-22T09:12:49.945Z,39.38
2022-12-22T09:13:50.314Z,33.75
2022-12-22T09:14:51.185Z,39.38
2022-12-22T09:15:52.117Z,33.75
2022-12-22T09:16:52.976Z,33.75
2022-12-22T09:17:53.946Z,33.75
2022-12-22T09:18:54.295Z,33.75
2022-12-22T09:19:55.166Z,33.75
2022-12-22T09:20:56.079Z,33.75
2022-12-22T09:21:56.944Z,33.75
2022-12-22T09:22:57.807Z,28.12
2022-12-22T09:23:58.661Z,28.12
2022-12-22T09:24:59.528Z,33.75
2022-12-22T09:26:00.406Z,56.25
2022-12-22T09:27:01.225Z,56.25
2022-12-22T09:28:02.087Z,39.38
2022-12-22T09:29:02.944Z,39.38
2022-12-22T09:30:03.821Z,39.38
2022-12-22T09:31:04.679Z,45.00
2022-12-22T09:32:05.551Z,50.62
2022-12-22T09:33:06.372Z,56.25
2022-12-22T09:34:09.576Z,61.88
2022-12-22T09:35:08.979Z,78.75
2022-12-22T09:36:08.855Z,78.75
2022-12-22T09:37:09.721Z,78.75
2022-12-22T09:38:10.948Z,84.38
2022-12-22T09:39:11.294Z,118.12
2022-12-22T09:40:12.153Z,123.75
2022-12-22T09:41:13.021Z,129.38
2022-12-22T09:42:13.857Z,146.25
2022-12-22T09:43:14.712Z,135.00
2022-12-22T09:44:15.567Z,135.00
2022-12-22T09:45:17.437Z,157.50
2022-12-22T09:46:17.429Z,151.88
2022-12-22T09:47:18.243Z,135.00
2022-12-22T09:48:19.448Z,140.62
2022-12-22T09:49:19.813Z,140.62
2022-12-22T09:50:20.669Z,151.88
2022-12-22T09:51:26.733Z,151.88
2022-12-22T09:52:23.284Z,123.75
2022-12-22T09:53:23.158Z,101.25
2022-12-22T09:54:24.012Z,95.62
2022-12-22T09:55:24.881Z,101.25
2022-12-22T09:56:25.737Z,106.88
2022-12-22T09:57:26.569Z,112.50
2022-12-22T09:58:27.448Z,123.75
2022-12-22T09:59:28.325Z,157.50
2022-12-22T10:00:29.179Z,196.88
2022-12-22T10:01:30.154Z,185.62
2022-12-22T10:02:30.660Z,202.50
2022-12-22T10:03:31.229Z,213.75
2022-12-22T10:04:31.594Z,264.38
2022-12-22T10:05:32.484Z,236.25
2022-12-22T10:06:33.344Z,315.00
2022-12-22T10:07:34.197Z,225.00
2022-12-22T10:08:35.459Z,258.75
2022-12-22T10:09:49.544Z,393.75
2022-12-22T10:10:37.544Z,388.12
2022-12-22T10:11:37.418Z,331.88
2022-12-22T10:12:38.276Z,534.38
2022-12-22T10:13:39.440Z,275.62
2022-12-22T10:14:39.796Z,303.75
2022-12-22T10:15:40.649Z,219.38
2022-12-22T10:16:41.632Z,140.62
2022-12-22T10:17:42.421Z,95.62
2022-12-22T10:18:43.282Z,78.75
2022-12-22T10:19:44.144Z,61.88
2022-12-22T10:20:44.996Z,45.00
2022-12-22T10:21:47.108Z,39.38
2022-12-22T10:22:46.625Z,45.00
2022-12-22T10:23:47.489Z,39.38
2022-12-22T10:24:48.350Z,45.00
2022-12-22T10:26:26.769Z,45.00
2022-12-22T10:26:50.990Z,45.00
2022-12-22T10:27:51.654Z,39.38
2022-12-22T10:28:51.937Z,39.38
2022-12-22T10:29:52.290Z,39.38
2022-12-22T10:30:53.141Z,28.12
2022-12-22T10:31:54.055Z,33.75
2022-12-22T10:32:54.865Z,33.75
2022-12-22T10:33:55.729Z,28.12
2022-12-22T10:34:56.585Z,33.75
2022-12-22T10:35:57.431Z,28.12
2022-12-22T10:36:58.313Z,28.12
2022-12-22T10:37:59.163Z,39.38
2022-12-22T10:38:59.937Z,33.75
2022-12-22T10:40:00.308Z,28.12
2022-12-22T10:41:02.583Z,22.50
2022-12-22T10:42:02.142Z,28.12
2022-12-22T10:43:02.974Z,33.75
2022-12-22T10:44:03.937Z,33.75
2022-12-22T10:45:04.816Z,33.75
2022-12-22T10:46:05.748Z,28.12
2022-12-22T10:47:06.184Z,28.12
2022-12-22T10:48:06.959Z,28.12
2022-12-22T10:49:07.827Z,28.12
2022-12-22T10:50:08.677Z,28.12
2022-12-22T10:51:09.543Z,28.12
2022-12-22T10:52:10.401Z,28.12
2022-12-22T10:53:11.256Z,22.50
2022-12-22T10:54:12.124Z,16.88
2022-12-22T10:55:12.990Z,16.88
2022-12-22T10:56:13.834Z,16.88
2022-12-22T10:57:14.743Z,39.38
2022-12-22T10:58:15.532Z,45.00
2022-12-22T10:59:16.397Z,67.50
2022-12-22T11:00:17.251Z,67.50
2022-12-22T11:01:18.121Z,61.88
2022-12-22T11:02:19.262Z,56.25
2022-12-22T11:03:24.415Z,67.50
2022-12-22T11:04:21.411Z,61.88
2022-12-22T11:05:21.286Z,50.62
2022-12-22T11:06:22.129Z,50.62
2022-12-22T11:07:22.988Z,50.62
2022-12-22T11:08:23.863Z,67.50
2022-12-22T11:09:33.700Z,61.88
2022-12-22T11:10:26.687Z,61.88
2022-12-22T11:11:26.544Z,61.88
2022-12-22T11:12:27.423Z,56.25
2022-12-22T11:13:28.259Z,45.00
2022-12-22T11:14:29.125Z,33.75
2022-12-22T11:15:29.988Z,33.75
2022-12-22T11:16:31.429Z,33.75
2022-12-22T11:17:31.908Z,33.75
2022-12-22T11:18:32.701Z,33.75
2022-12-22T11:19:33.557Z,33.75
2022-12-22T11:20:34.408Z,56.25
2022-12-22T11:21:35.267Z,78.75
2022-12-22T11:22:36.134Z,95.62
2022-12-22T11:23:36.989Z,135.00
2022-12-22T11:24:37.936Z,180.00
2022-12-22T11:25:38.792Z,219.38
2022-12-22T11:26:39.652Z,247.50
2022-12-22T11:27:45.771Z,230.62
2022-12-22T11:28:42.271Z,208.12
2022-12-22T11:29:42.129Z,168.75
2022-12-22T11:30:43.048Z,140.62
2022-12-22T11:31:43.852Z,180.00
2022-12-22T11:32:44.788Z,247.50
2022-12-22T11:33:45.575Z,376.88
2022-12-22T11:34:46.440Z,1558.12
2022-12-22T11:35:47.300Z,2199.38
2022-12-22T11:36:48.158Z,2351.25
2022-12-22T11:37:49.019Z,1563.75
2022-12-22T11:38:49.865Z,2373.75
2022-12-22T11:39:54.257Z,1755.00
2022-12-22T11:40:52.492Z,1856.25
2022-12-22T11:41:52.350Z,2041.88
2022-12-22T11:42:53.233Z,2306.25
2022-12-22T11:43:54.076Z,2401.88
2022-12-22T11:44:55.438Z,2306.25
2022-12-22T11:45:55.819Z,2317.50
2022-12-22T11:46:56.715Z,2098.12
2022-12-22T11:47:57.156Z,2379.38
2022-12-22T11:48:57.959Z,2418.75
2022-12-22T11:50:00.183Z,663.75
2022-12-22T11:51:09.961Z,2238.75
2022-12-22T11:52:01.433Z,961.88
2022-12-22T11:53:01.283Z,2126.25
2022-12-22T11:54:07.123Z,2379.38
2022-12-22T11:55:03.937Z,2452.50
2022-12-22T11:56:03.778Z,2019.38
2022-12-22T11:57:04.744Z,2407.50
2022-12-22T11:58:05.616Z,2216.25
2022-12-22T11:59:06.452Z,2064.38
2022-12-22T12:00:07.431Z,1935.00
2022-12-22T12:01:20.558Z,1980.00
2022-12-22T12:02:09.656Z,2086.88
2022-12-22T12:03:09.583Z,1996.88
2022-12-22T12:04:10.500Z,798.75
2022-12-22T12:05:11.439Z,1586.25
2022-12-22T12:06:12.290Z,1350.00
2022-12-22T12:07:13.143Z,337.50
2022-12-22T12:08:14.012Z,275.62
2022-12-22T12:09:14.881Z,253.12
2022-12-22T12:10:15.765Z,213.75
2022-12-22T12:11:16.622Z,236.25
2022-12-22T12:12:17.491Z,776.25
2022-12-22T12:13:25.749Z,382.50
2022-12-22T12:14:20.135Z,1333.12
2022-12-22T12:15:20.495Z,776.25
2022-12-22T12:16:20.847Z,495.00
2022-12-22T12:17:21.693Z,641.25
2022-12-22T12:18:22.566Z,1890.00
2022-12-22T12:19:27.037Z,1693.12
2022-12-22T12:20:25.446Z,1338.75
2022-12-22T12:21:24.801Z,787.50
2022-12-22T12:22:25.674Z,495.00
2022-12-22T12:23:26.525Z,500.62
2022-12-22T12:24:27.383Z,1524.38
2022-12-22T12:25:28.451Z,1327.50
2022-12-22T12:26:28.812Z,1456.88
2022-12-22T12:27:29.715Z,1530.00
2022-12-22T12:28:30.587Z,1687.50
2022-12-22T12:29:31.424Z,1743.75
2022-12-22T12:30:40.029Z,1861.88
2022-12-22T12:31:34.272Z,1704.38
2022-12-22T12:32:34.094Z,421.88
2022-12-22T12:33:34.972Z,1833.75
2022-12-22T12:34:35.755Z,1957.50
2022-12-22T12:35:36.948Z,517.50
2022-12-22T12:36:37.309Z,523.12
2022-12-22T12:37:38.164Z,421.88
2022-12-22T12:39:07.029Z,748.12
2022-12-22T12:39:40.788Z,348.75
2022-12-22T12:40:40.945Z,1991.25
2022-12-22T12:41:41.320Z,2086.88
2022-12-22T12:42:42.187Z,2013.75
2022-12-22T12:43:43.097Z,438.75
2022-12-22T12:44:43.932Z,1743.75
2022-12-22T12:45:44.801Z,326.25
2022-12-22T12:46:45.799Z,298.12
2022-12-22T12:47:46.150Z,275.62
2022-12-22T12:48:46.952Z,860.62
2022-12-22T12:49:47.795Z,1935.00
2022-12-22T12:50:48.651Z,1901.25
2022-12-22T12:51:49.597Z,360.00
2022-12-22T12:52:50.425Z,315.00
2022-12-22T12:53:51.282Z,382.50
2022-12-22T12:54:52.144Z,489.38
2022-12-22T12:55:53.475Z,348.75
2022-12-22T12:56:53.832Z,376.88
2022-12-22T12:57:54.698Z,1260.00
2022-12-22T12:58:55.589Z,1794.38
2022-12-22T12:59:56.420Z,1681.88
2022-12-22T13:00:59.087Z,1462.50
2022-12-22T13:01:58.331Z,1575.00
2022-12-22T13:02:58.889Z,1440.00
2022-12-22T13:04:04.691Z,1462.50
2022-12-22T13:05:00.991Z,1428.75
2022-12-22T13:06:00.946Z,1186.88
2022-12-22T13:07:01.801Z,1569.38
2022-12-22T13:08:02.648Z,1687.50
2022-12-22T13:09:39.959Z,1423.12
2022-12-22T13:10:05.250Z,1513.12
2022-12-22T13:11:05.452Z,1552.50
2022-12-22T13:12:16.140Z,1518.75